Time;durP1;ratioP1;P1;durP2;ratioP2;P2;SDS_P1;SDS_P2;PMS_P1;PMS_P2;Temp;Humidity;BMP_temperature;BMP_pressure;BME280_temperature;BME280_humidity;BME280_pressure;Samples;Min_cycle;Max_cycle;Signal;HPM_P1;HPM_P2
2023/04/07 00:01:31;;;;;;;14.77;10.23;;;;;;;8.14;49.68;100438.91;6149710;22;96769;-87
2023/04/07 00:03:57;;;;;;;16.90;10.38;;;;;;;8.22;50.20;100449.19;6176658;22;98394;-87
2023/04/07 00:06:22;;;;;;;16.65;10.98;;;;;;;8.27;50.67;100447.34;6151182;22;100882;-89
2023/04/07 00:08:48;;;;;;;14.65;10.20;;;;;;;8.25;50.34;100448.25;6150644;22;97299;-87
2023/04/07 00:11:13;;;;;;;18.58;9.23;;;;;;;8.05;51.53;100439.09;6126418;22;96672;-89
2023/04/07 00:13:39;;;;;;;13.00;9.45;;;;;;;8.18;51.51;100449.31;6172753;22;101380;-89
2023/04/07 00:16:05;;;;;;;14.60;8.98;;;;;;;7.85;51.76;100394.22;6125177;22;101633;-87
2023/04/07 00:18:30;;;;;;;15.95;9.00;;;;;;;7.87;52.29;100395.91;6125006;22;96715;-89
2023/04/07 00:20:56;;;;;;;14.73;8.77;;;;;;;8.13;52.12;100444.16;6150580;22;96693;-87
2023/04/07 00:23:21;;;;;;;14.63;9.40;;;;;;;7.66;52.30;100359.81;6151923;22;100721;-88
2023/04/07 00:25:47;;;;;;;14.27;8.95;;;;;;;8.13;52.63;100442.41;6150230;22;101599;-88
2023/04/07 00:28:13;;;;;;;15.48;9.27;;;;;;;8.12;52.91;100440.69;6151238;22;97136;-87
2023/04/07 00:30:38;;;;;;;14.63;9.00;;;;;;;7.66;52.77;100355.44;6174037;22;97544;-88
2023/04/07 00:33:04;;;;;;;13.40;8.80;;;;;;;7.99;52.70;100409.63;6151725;22;101268;-88
2023/04/07 00:35:29;;;;;;;12.85;8.27;;;;;;;8.09;53.47;100429.44;6126796;22;101037;-88
2023/04/07 00:37:55;;;;;;;12.23;8.35;;;;;;;8.11;53.44;100428.50;6150530;22;97520;-87
2023/04/07 00:40:21;;;;;;;15.63;8.73;;;;;;;8.16;53.73;100434.50;6152318;22;97130;-86
2023/04/07 00:42:47;;;;;;;15.27;8.85;;;;;;;8.08;53.97;100430.31;6151244;22;101598;-87
2023/04/07 00:45:12;;;;;;;11.73;8.15;;;;;;;8.09;53.70;100424.22;6127096;22;101395;-88
2023/04/07 00:47:38;;;;;;;12.10;8.18;;;;;;;8.10;53.75;100418.94;6173569;22;97135;-88
2023/04/07 00:50:04;;;;;;;15.50;8.80;;;;;;;8.06;53.88;100417.31;6151520;22;96906;-89
2023/04/07 00:52:31;;;;;;;14.40;8.05;;;;;;;7.83;54.35;100382.97;6126354;22;101630;-88
2023/04/07 00:54:58;;;;;;;15.80;8.52;;;;;;;7.91;54.55;100402.81;6127127;22;101284;-88
2023/04/07 00:57:24;;;;;;;12.05;8.57;;;;;;;8.01;54.31;100403.47;6125415;22;97306;-89
2023/04/07 00:59:51;;;;;;;11.38;8.27;;;;;;;7.96;54.59;100402.69;6151915;22;96853;-89
2023/04/07 01:02:37;;;;;;;17.42;8.02;;;;;;;8.01;54.17;100406.09;6149826;22;102006;-89
2023/04/07 01:05:12;;;;;;;14.70;9.55;;;;;;;7.98;54.67;100408.75;6125581;22;101652;-88
2023/04/07 01:07:46;;;;;;;13.00;8.40;;;;;;;7.91;54.26;100392.38;6125559;22;97226;-87
2023/04/07 01:10:16;;;;;;;12.15;8.05;;;;;;;7.97;54.68;100390.47;6126882;22;97228;-88
2023/04/07 01:12:58;;;;;;;18.50;9.55;;;;;;;7.94;54.52;100394.91;6130610;22;101506;-88
2023/04/07 01:15:27;;;;;;;15.70;9.05;;;;;;;7.77;55.08;100376.13;6126587;22;100805;-89
2023/04/07 01:18:17;;;;;;;15.70;9.73;;;;;;;7.74;54.90;100362.22;6126931;22;96728;-88
2023/04/07 01:20:45;;;;;;;14.70;8.32;;;;;;;7.77;54.75;100370.91;6149003;22;97181;-89
2023/04/07 01:23:20;;;;;;;15.50;9.38;;;;;;;7.84;55.12;100392.53;6151632;22;101438;-88
2023/04/07 01:26:13;;;;;;;17.40;9.18;;;;;;;7.81;55.24;100390.81;6125550;22;101273;-89
2023/04/07 01:29:16;;;;;;;15.15;9.65;;;;;;;7.77;55.36;100383.09;6175110;22;96803;-87
2023/04/07 01:31:42;;;;;;;19.27;9.00;;;;;;;7.80;55.51;100377.81;6176454;22;96619;-88
2023/04/07 01:34:11;;;;;;;16.05;8.13;;;;;;;7.81;55.57;100377.75;6126978;22;101481;-87
2023/04/07 01:36:37;;;;;;;15.35;8.88;;;;;;;7.81;55.23;100383.00;6147481;22;101258;-88
2023/04/07 01:39:03;;;;;;;11.88;8.82;;;;;;;7.86;55.54;100390.75;6125848;22;96895;-89
2023/04/07 01:41:30;;;;;;;16.10;8.88;;;;;;;7.66;55.58;100372.88;6125754;22;96705;-90
2023/04/07 01:43:55;;;;;;;14.70;9.32;;;;;;;7.77;55.66;100383.09;6176840;22;98243;-88
2023/04/07 01:46:22;;;;;;;11.70;8.52;;;;;;;7.64;55.84;100375.50;6127196;22;99964;-90
2023/04/07 01:48:48;;;;;;;13.02;8.40;;;;;;;7.61;55.94;100370.34;6151332;22;97214;-88
2023/04/07 01:51:17;;;;;;;13.85;8.70;;;;;;;7.64;55.13;100357.22;6151881;22;96931;-89
2023/04/07 01:53:44;;;;;;;14.98;8.65;;;;;;;7.72;55.43;100373.59;6124209;22;100556;-89
2023/04/07 01:56:10;;;;;;;15.80;9.07;;;;;;;7.52;55.85;100347.03;6150905;22;98231;-89
2023/04/07 01:58:36;;;;;;;15.73;9.05;;;;;;;7.68;55.58;100368.47;6125362;22;97240;-88
2023/04/07 02:01:05;;;;;;;13.60;8.82;;;;;;;7.63;56.42;100367.72;6129688;22;97227;-88
2023/04/07 02:04:09;;;;;;;15.27;9.13;;;;;;;7.61;56.51;100367.72;6097028;22;100471;-88
2023/04/07 02:06:42;;;;;;;19.30;8.77;;;;;;;7.58;56.47;100362.56;6111533;22;101108;-88
2023/04/07 02:09:10;;;;;;;13.27;8.63;;;;;;;7.65;56.48;100371.13;6095411;22;96687;-89
2023/04/07 02:11:36;;;;;;;16.60;9.68;;;;;;;7.48;56.87;100354.06;6095614;22;97141;-88
2023/04/07 02:14:05;;;;;;;13.13;8.32;;;;;;;7.60;56.05;100357.31;6121577;22;101361;-89
2023/04/07 02:16:40;;;;;;;14.05;9.43;;;;;;;7.47;56.85;100354.09;6122247;22;101682;-88
2023/04/07 02:19:06;;;;;;;12.68;8.75;;;;;;;7.29;56.83;100324.00;6095563;22;97059;-87
2023/04/07 02:21:33;;;;;;;11.82;8.52;;;;;;;7.51;56.90;100361.00;6096236;22;97032;-88
2023/04/07 02:24:05;;;;;;;14.20;9.18;;;;;;;7.49;57.55;100365.38;6121474;22;100904;-88
2023/04/07 02:26:34;;;;;;;;;;;;;;;7.52;57.49;100356.63;6095983;22;101261;-89
2023/04/07 02:29:03;;;;;;;14.57;9.27;;;;;;;7.54;57.55;100358.31;6120669;22;96681;-89
2023/04/07 02:31:29;;;;;;;13.93;8.25;;;;;;;7.47;57.42;100339.28;6120375;22;96651;-88
2023/04/07 02:33:55;;;;;;;12.20;9.13;;;;;;;7.47;57.77;100338.41;6146547;22;99028;-89
2023/04/07 02:36:20;;;;;;;15.02;9.10;;;;;;;7.32;57.80;100320.47;6121655;22;98101;-88
2023/04/07 02:38:46;;;;;;;17.85;9.77;;;;;;;7.30;57.94;100314.41;6095509;22;97452;-89
2023/04/07 02:41:11;;;;;;;13.45;9.00;;;;;;;7.24;58.09;100310.16;6121352;22;97018;-88
2023/04/07 02:43:37;;;;;;;17.45;8.95;;;;;;;7.31;58.02;100331.81;6092727;22;100806;-88
2023/04/07 02:46:02;;;;;;;14.30;9.07;;;;;;;7.52;58.08;100359.25;6095616;22;99700;-88
2023/04/07 02:48:29;;;;;;;13.43;9.40;;;;;;;7.29;58.46;100316.16;6120832;22;96787;-88
2023/04/07 02:50:54;;;;;;;12.77;8.18;;;;;;;7.23;58.39;100313.69;6096665;22;97373;-88
2023/04/07 02:53:20;;;;;;;12.98;8.43;;;;;;;7.55;58.03;100348.72;6121154;22;100534;-88
2023/04/07 02:55:46;;;;;;;15.30;9.05;;;;;;;7.19;58.24;100322.47;6120384;22;100157;-89
2023/04/07 02:58:11;;;;;;;12.43;8.77;;;;;;;7.32;57.95;100350.03;6145905;22;96752;-88
2023/04/07 03:00:41;;;;;;;14.60;8.30;;;;;;;7.32;58.55;100343.97;6130501;22;96877;-89
2023/04/07 03:03:19;;;;;;;17.70;8.82;;;;;;;7.32;58.32;100334.38;6131142;22;100218;-89
2023/04/07 03:06:05;;;;;;;14.73;9.63;;;;;;;7.37;58.43;100339.53;6154038;22;99327;-89
2023/04/07 03:08:33;;;;;;;12.50;8.75;;;;;;;7.34;58.51;100336.97;6125963;22;97341;-88
2023/04/07 03:10:59;;;;;;;12.02;8.65;;;;;;;7.33;58.35;100338.72;6125327;22;97476;-88
2023/04/07 03:13:29;;;;;;;12.07;9.30;;;;;;;7.36;58.62;100335.16;6152213;22;100823;-89
2023/04/07 03:15:55;;;;;;;16.52;11.02;;;;;;;7.38;58.12;100342.09;6125682;22;100435;-89
2023/04/07 03:18:22;;;;;;;12.55;9.20;;;;;;;7.33;58.58;100337.84;6126158;22;97097;-89
2023/04/07 03:20:49;;;;;;;15.20;9.95;;;;;;;7.22;58.64;100332.88;6122967;22;97390;-88
2023/04/07 03:23:16;;;;;;;15.40;10.75;;;;;;;7.32;58.82;100341.34;6126318;22;100532;-89
2023/04/07 03:25:42;;;;;;;16.50;10.82;;;;;;;7.25;58.96;100336.25;6150403;22;101350;-88
2023/04/07 03:28:10;;;;;;;18.98;10.55;;;;;;;7.28;59.17;100347.53;6126397;22;97158;-89
2023/04/07 03:30:37;;;;;;;14.48;10.15;;;;;;;7.07;59.33;100320.97;6150278;22;96806;-90
2023/04/07 03:33:03;;;;;;;14.45;9.57;;;;;;;7.16;59.24;100333.00;6150828;22;100132;-88
2023/04/07 03:35:30;;;;;;;15.13;10.37;;;;;;;7.21;59.28;100341.56;6151096;22;101503;-90
2023/04/07 03:37:56;;;;;;;16.10;10.93;;;;;;;7.19;59.23;100338.16;6124241;22;96988;-88
2023/04/07 03:40:21;;;;;;;12.52;9.65;;;;;;;7.09;59.25;100307.88;6125091;22;96935;-90
2023/04/07 03:42:47;;;;;;;13.93;10.18;;;;;;;7.07;59.33;100309.66;6150535;22;101460;-88
2023/04/07 03:45:16;;;;;;;16.52;9.70;;;;;;;7.23;59.42;100338.03;6126783;22;100001;-89
2023/04/07 03:47:45;;;;;;;14.97;10.53;;;;;;;7.04;59.92;100318.44;6127428;22;97036;-89
2023/04/07 03:50:11;;;;;;;15.55;9.82;;;;;;;7.14;59.94;100338.22;6151569;22;97210;-89
2023/04/07 03:52:47;;;;;;;18.77;10.23;;;;;;;7.20;59.85;100330.28;6129880;22;101608;-89
2023/04/07 03:55:21;;;;;;;16.70;10.70;;;;;;;7.14;59.63;100330.41;6151907;22;100924;-89
2023/04/07 03:57:51;;;;;;;15.43;10.10;;;;;;;7.03;60.13;100321.91;6125832;22;97371;-88
2023/04/07 04:00:17;;;;;;;15.48;9.73;;;;;;;7.13;60.14;100333.06;6154146;22;97312;-89
2023/04/07 04:02:46;;;;;;;15.52;10.32;;;;;;;7.16;59.67;100338.22;6131936;22;99710;-88
2023/04/07 04:05:17;;;;;;;15.57;9.97;;;;;;;7.22;60.34;100340.69;6157361;22;100905;-88
2023/04/07 04:07:43;;;;;;;15.77;9.48;;;;;;;7.05;60.24;100306.22;6156172;22;97123;-87
2023/04/07 04:10:09;;;;;;;14.45;10.40;;;;;;;7.29;60.32;100344.88;6132378;22;96707;-88
2023/04/07 04:12:40;;;;;;;12.45;9.57;;;;;;;7.31;60.14;100337.91;6132434;22;100928;-91
2023/04/07 04:15:09;;;;;;;15.95;9.88;;;;;;;7.29;59.55;100328.38;6132874;22;101586;-88
2023/04/07 04:17:35;;;;;;;14.30;9.97;;;;;;;7.19;60.54;100340.75;6156720;22;97946;-88
2023/04/07 04:20:03;;;;;;;15.50;9.10;;;;;;;7.16;60.13;100340.81;6132256;22;96856;-88
2023/04/07 04:22:41;;;;;;;13.85;9.27;;;;;;;7.12;60.04;100340.00;6135781;22;101630;-88
2023/04/07 04:25:07;;;;;;;14.60;9.50;;;;;;;7.02;60.23;100321.06;6132379;22;101842;-88
2023/04/07 04:27:33;;;;;;;17.95;11.40;;;;;;;7.28;59.96;100347.53;6131160;22;97243;-88
2023/04/07 04:30:13;;;;;;;14.27;9.50;;;;;;;7.17;60.50;100340.78;6156789;22;97251;-88
2023/04/07 04:32:46;;;;;;;15.95;10.65;;;;;;;7.21;60.54;100344.19;6157495;22;101462;-89
2023/04/07 04:35:13;;;;;;;13.95;9.38;;;;;;;7.18;60.63;100344.25;6156525;22;101631;-89
2023/04/07 04:37:49;;;;;;;14.20;10.00;;;;;;;7.13;60.64;100341.75;6135277;22;97581;-88
2023/04/07 04:40:14;;;;;;;13.57;10.23;;;;;;;7.11;60.60;100340.03;6132132;22;97593;-88
2023/04/07 04:42:43;;;;;;;10.53;8.80;;;;;;;7.06;60.38;100342.72;6156942;22;100657;-88
2023/04/07 04:45:11;;;;;;;13.87;9.03;;;;;;;6.90;60.29;100328.28;6132699;22;100054;-89
2023/04/07 04:47:42;;;;;;;12.93;8.83;;;;;;;6.89;60.35;100321.31;6154460;22;97903;-88
2023/04/07 04:50:08;;;;;;;10.50;7.70;;;;;;;7.02;59.91;100349.75;6131958;22;97201;-88
2023/04/07 04:52:37;;;;;;;12.63;8.48;;;;;;;6.70;59.54;100300.78;6155772;22;98061;-89
2023/04/07 04:55:03;;;;;;;10.43;8.00;;;;;;;6.83;59.57;100326.66;6156570;22;101185;-89
2023/04/07 04:57:28;;;;;;;12.47;8.20;;;;;;;7.03;59.75;100351.47;6155898;22;97324;-88
2023/04/07 04:59:54;;;;;;;10.18;7.50;;;;;;;6.79;59.43;100312.81;6157167;22;96790;-88
2023/04/07 05:02:20;;;;;;;10.73;7.40;;;;;;;6.80;59.38;100312.75;6156409;22;101543;-91
2023/04/07 05:04:46;;;;;;;12.27;8.40;;;;;;;6.99;58.96;100338.53;6156445;22;100361;-88
2023/04/07 05:07:20;;;;;;;11.90;7.90;;;;;;;6.86;58.69;100311.78;6157272;22;97010;-88
2023/04/07 05:09:45;;;;;;;9.80;7.47;;;;;;;6.81;58.84;100303.22;6131585;22;96906;-89
2023/04/07 05:12:14;;;;;;;11.23;7.67;;;;;;;7.02;58.77;100349.75;6156176;22;101487;-88
2023/04/07 05:14:45;;;;;;;11.35;7.38;;;;;;;6.79;58.89;100321.50;6132992;22;99588;-87
2023/04/07 05:17:11;;;;;;;12.32;7.80;;;;;;;6.95;59.47;100350.78;6131043;22;97167;-89
2023/04/07 05:19:37;;;;;;;12.40;7.72;;;;;;;7.00;59.09;100355.91;6132322;22;97373;-88
2023/04/07 05:22:11;;;;;;;11.35;7.88;;;;;;;6.88;59.20;100351.78;6134529;22;101268;-89
2023/04/07 05:24:43;;;;;;;12.95;8.07;;;;;;;6.96;59.24;100354.25;6133599;22;100381;-88
2023/04/07 05:27:09;;;;;;;11.20;7.97;;;;;;;6.94;59.15;100358.63;6156036;22;97349;-88
2023/04/07 05:29:36;;;;;;;12.20;8.40;;;;;;;6.90;59.51;100331.72;6132366;22;96827;-88
2023/04/07 05:32:04;;;;;;;12.52;8.32;;;;;;;7.01;59.01;100355.00;6131023;22;100981;-88
2023/04/07 05:34:30;;;;;;;11.73;7.73;;;;;;;7.08;59.01;100346.19;6156477;22;100628;-90
2023/04/07 05:36:57;;;;;;;10.30;7.97;;;;;;;7.02;59.19;100351.53;6155119;22;97644;-90
2023/04/07 05:39:22;;;;;;;10.30;7.80;;;;;;;7.06;59.32;100354.94;6157590;22;97494;-89
2023/04/07 05:41:51;;;;;;;11.37;8.10;;;;;;;7.05;59.18;100353.22;6154784;22;100148;-91
2023/04/07 05:44:18;;;;;;;11.20;7.97;;;;;;;7.00;59.40;100354.16;6156358;22;100001;-90
2023/04/07 05:46:44;;;;;;;11.23;8.00;;;;;;;6.70;59.42;100307.75;6131419;22;97097;-91
2023/04/07 05:49:10;;;;;;;12.30;7.68;;;;;;;6.99;59.61;100357.66;6157065;22;97595;-89
2023/04/07 05:51:36;;;;;;;11.65;7.65;;;;;;;7.00;59.63;100355.91;6131452;22;100960;-89
2023/04/07 05:54:08;;;;;;;12.63;8.05;;;;;;;7.02;60.15;100356.75;6134314;22;100564;-89
2023/04/07 05:56:35;;;;;;;13.50;8.43;;;;;;;6.86;59.27;100318.75;6131079;22;97175;-89
2023/04/07 05:59:01;;;;;;;10.70;7.45;;;;;;;6.89;59.77;100335.22;6153752;22;97851;-89
2023/04/07 06:01:28;;;;;;;12.20;8.15;;;;;;;6.87;59.66;100328.31;6154221;22;100358;-90
2023/04/07 06:03:53;;;;;;;11.10;8.05;;;;;;;6.97;59.64;100351.59;6129917;22;101287;-89
2023/04/07 06:06:22;;;;;;;12.73;8.43;;;;;;;6.99;59.50;100355.03;6131903;22;96635;-88
2023/04/07 06:08:48;;;;;;;12.37;8.53;;;;;;;6.98;59.56;100358.56;6130297;22;97065;-90
2023/04/07 06:11:14;;;;;;;12.00;8.10;;;;;;;6.87;59.96;100347.44;6156218;22;101142;-89
2023/04/07 06:13:39;;;;;;;10.90;8.47;;;;;;;6.83;59.58;100329.25;6129503;22;99720;-90
2023/04/07 06:16:05;;;;;;;13.30;8.87;;;;;;;6.64;59.39;100298.28;6153623;22;97261;-89
2023/04/07 06:18:31;;;;;;;10.60;8.30;;;;;;;7.00;59.64;100359.38;6155108;22;97242;-90
2023/04/07 06:20:57;;;;;;;13.02;8.82;;;;;;;7.05;59.37;100363.66;6154450;22;100185;-90
2023/04/07 06:23:24;;;;;;;13.13;8.93;;;;;;;6.69;59.85;100308.63;6156762;22;96963;-89
2023/04/07 06:25:50;;;;;;;11.53;8.13;;;;;;;6.63;59.58;100298.31;6155414;22;96711;-89
2023/04/07 06:28:17;;;;;;;14.23;8.57;;;;;;;6.86;59.35;100329.19;6129841;22;97011;-90
2023/04/07 06:30:42;;;;;;;13.57;8.43;;;;;;;7.01;59.92;100355.88;6152923;22;101212;-90
2023/04/07 06:33:10;;;;;;;13.10;9.05;;;;;;;6.92;59.55;100340.41;6155350;22;101166;-89
2023/04/07 06:35:37;;;;;;;15.07;9.35;;;;;;;6.77;60.35;100322.41;6129695;22;97056;-89
2023/04/07 06:38:03;;;;;;;12.20;8.47;;;;;;;6.93;60.20;100359.53;6155515;22;97114;-91
2023/04/07 06:40:29;;;;;;;13.65;8.38;;;;;;;6.93;60.42;100333.44;6129375;22;100879;-90
2023/04/07 06:42:55;;;;;;;11.55;8.20;;;;;;;6.96;60.37;100333.38;6128908;22;101416;-90
2023/04/07 06:45:29;;;;;;;13.27;8.37;;;;;;;6.97;60.68;100332.47;6133222;22;96765;-92
2023/04/07 06:47:55;;;;;;;15.35;10.50;;;;;;;6.92;60.84;100326.47;6178350;22;96927;-90
2023/04/07 06:50:21;;;;;;;15.65;10.60;;;;;;;6.86;60.77;100318.75;6153628;22;100876;-91
2023/04/07 06:52:47;;;;;;;16.77;11.50;;;;;;;6.96;60.89;100339.44;6154408;22;100395;-92
2023/04/07 06:55:12;;;;;;;18.10;12.43;;;;;;;6.64;60.91;100293.09;6130128;22;97149;-90
2023/04/07 06:57:38;;;;;;;17.33;12.53;;;;;;;6.67;61.43;100306.06;6179552;22;96839;-89
2023/04/07 07:00:06;;;;;;;22.90;13.50;;;;;;;6.82;61.31;100319.72;6178895;22;97335;-90
2023/04/07 07:02:32;;;;;;;18.67;12.70;;;;;;;6.98;61.47;100344.63;6155599;22;101434;-90
2023/04/07 07:04:58;;;;;;;19.85;12.73;;;;;;;7.02;61.41;100349.75;6151670;22;97296;-90
2023/04/07 07:07:24;;;;;;;14.82;9.75;;;;;;;6.90;61.46;100323.91;6153716;22;97279;-90
2023/04/07 07:09:50;;;;;;;11.63;8.97;;;;;;;6.74;61.03;100292.00;6153394;22;101044;-90
2023/04/07 07:12:16;;;;;;;12.57;8.47;;;;;;;6.71;61.67;100299.03;6154596;22;101674;-89
2023/04/07 07:14:42;;;;;;;13.63;9.83;;;;;;;6.99;61.59;100334.16;6153654;22;96673;-86
2023/04/07 07:17:08;;;;;;;16.77;10.00;;;;;;;7.06;61.67;100336.66;6155791;22;97239;-87
2023/04/07 07:19:34;;;;;;;12.07;8.93;;;;;;;7.07;61.50;100333.13;6156375;22;97921;-87
2023/04/07 07:22:02;;;;;;;15.90;9.20;;;;;;;7.10;61.70;100339.19;6178307;22;98265;-88
2023/04/07 07:24:28;;;;;;;13.23;9.00;;;;;;;7.13;61.38;100339.13;6129922;22;97309;-87
2023/04/07 07:26:55;;;;;;;13.87;8.73;;;;;;;7.21;62.24;100345.06;6154850;22;96890;-87
2023/04/07 07:29:21;;;;;;;13.07;8.97;;;;;;;6.96;61.84;100317.72;6129912;22;101222;-86
2023/04/07 07:31:46;;;;;;;17.73;9.57;;;;;;;7.03;61.95;100333.19;6128450;22;101201;-86
2023/04/07 07:34:12;;;;;;;15.48;9.07;;;;;;;6.88;61.65;100312.63;6179369;22;96673;-89
2023/04/07 07:36:37;;;;;;;11.70;8.20;;;;;;;7.02;61.88;100347.16;6180026;22;96973;-87
2023/04/07 07:39:04;;;;;;;13.25;8.57;;;;;;;6.82;61.85;100322.31;6152874;22;97573;-89
2023/04/07 07:41:30;;;;;;;12.30;8.43;;;;;;;7.03;61.76;100355.84;6127844;22;101731;-85
2023/04/07 07:43:55;;;;;;;15.05;8.80;;;;;;;6.98;61.47;100363.78;6152583;22;97005;-89
2023/04/07 07:46:23;;;;;;;12.33;7.50;;;;;;;6.95;61.61;100349.91;6128725;22;96915;-91
2023/04/07 07:48:49;;;;;;;14.80;8.43;;;;;;;7.01;61.52;100368.94;6154648;22;100974;-92
2023/04/07 07:51:14;;;;;;;13.67;9.20;;;;;;;6.84;62.17;100333.59;6128998;22;101480;-89
2023/04/07 07:53:40;;;;;;;16.13;8.83;;;;;;;7.06;61.43;100378.41;6179938;22;97209;-91
2023/04/07 07:56:05;;;;;;;13.80;8.60;;;;;;;6.98;61.31;100355.94;6130030;22;96842;-90
2023/04/07 07:58:31;;;;;;;12.10;8.00;;;;;;;7.01;61.16;100361.09;6127190;22;100043;-90
2023/04/07 08:00:57;;;;;;;10.13;7.67;;;;;;;7.06;61.16;100368.81;6145728;22;100786;-90
2023/04/07 08:03:23;;;;;;;10.95;7.93;;;;;;;7.08;60.93;100374.91;6122172;22;97576;-93
2023/04/07 08:05:49;;;;;;;10.52;8.45;;;;;;;6.91;61.34;100343.03;6148172;22;97315;-91
2023/04/07 08:08:15;;;;;;;14.10;8.67;;;;;;;6.96;61.19;100347.28;6148296;22;99720;-89
2023/04/07 08:10:40;;;;;;;10.50;7.45;;;;;;;7.07;60.82;100367.06;6174821;22;97227;-89
2023/04/07 08:13:06;;;;;;;16.95;10.80;;;;;;;7.03;61.06;100372.34;6111363;22;97290;-88
2023/04/07 08:15:31;;;;;;;10.07;7.60;;;;;;;7.11;60.82;100369.63;6148369;22;96686;-90
2023/04/07 08:17:58;;;;;;;9.60;7.03;;;;;;;7.11;60.95;100372.22;6147569;22;100324;-89
2023/04/07 08:20:25;;;;;;;9.50;6.50;;;;;;;7.00;61.07;100355.91;6122929;22;101566;-90
2023/04/07 08:22:51;;;;;;;9.83;6.80;;;;;;;7.02;61.13;100357.59;6147888;22;97526;-90
2023/04/07 08:25:16;;;;;;;8.77;6.65;;;;;;;6.80;60.89;100320.59;6174250;22;96615;-91
2023/04/07 08:27:42;;;;;;;9.63;6.70;;;;;;;7.17;61.10;100371.25;6122548;22;100767;-91
2023/04/07 08:30:08;;;;;;;9.75;7.00;;;;;;;7.15;60.99;100368.66;6122937;22;100149;-88
2023/04/07 08:32:34;;;;;;;10.32;7.32;;;;;;;6.92;60.66;100324.75;6148747;22;97099;-83
2023/04/07 08:35:00;;;;;;;11.03;7.17;;;;;;;6.96;61.06;100334.22;6174236;22;96810;-83
2023/04/07 08:37:25;;;;;;;12.52;8.77;;;;;;;7.18;61.40;100365.97;6147914;22;97785;-82
2023/04/07 08:39:51;;;;;;;10.98;7.95;;;;;;;7.02;60.94;100348.91;6148035;22;97444;-85
2023/04/07 08:42:17;;;;;;;11.82;7.53;;;;;;;7.10;60.79;100356.56;6148886;22;96726;-81
2023/04/07 08:44:43;;;;;;;14.02;7.90;;;;;;;6.96;61.29;100339.44;6148945;22;97359;-80
2023/04/07 08:47:10;;;;;;;9.93;7.40;;;;;;;7.11;60.90;100345.25;6147713;22;98202;-77
2023/04/07 08:49:37;;;;;;;10.60;8.27;;;;;;;7.16;61.16;100362.56;6122281;22;101913;-80
2023/04/07 08:52:05;;;;;;;10.85;7.63;;;;;;;7.22;60.80;100358.97;6146191;22;97764;-82
2023/04/07 08:54:32;;;;;;;11.37;7.63;;;;;;;7.29;60.69;100359.69;6119816;22;96913;-83
2023/04/07 08:56:58;;;;;;;12.88;7.18;;;;;;;7.20;61.17;100352.91;6145119;22;101022;-81
2023/04/07 08:59:27;;;;;;;11.20;7.25;;;;;;;7.27;60.96;100357.09;6147087;22;101372;-81
2023/04/07 09:01:53;;;;;;;15.13;8.20;;;;;;;7.22;61.33;100362.44;6147210;22;97108;-81
2023/04/07 09:04:21;;;;;;;18.80;9.30;;;;;;;7.32;61.67;100357.88;6148017;22;96763;-91
2023/04/07 09:06:49;;;;;;;10.50;7.13;;;;;;;7.39;61.02;100356.88;6126469;22;101401;-88
2023/04/07 09:09:15;;;;;;;11.70;7.50;;;;;;;7.37;61.08;100356.03;6148525;22;101157;-85
2023/04/07 09:11:40;;;;;;;13.40;7.47;;;;;;;7.39;60.58;100356.88;6120329;22;96632;-84
2023/04/07 09:14:06;;;;;;;10.57;7.57;;;;;;;7.39;60.40;100353.41;6120113;22;96758;-83
2023/04/07 09:16:32;;;;;;;11.30;7.10;;;;;;;7.35;60.84;100349.97;6120216;22;101204;-83
2023/04/07 09:18:58;;;;;;;12.60;7.55;;;;;;;7.46;60.87;100365.44;6144259;22;101037;-82
2023/04/07 09:21:24;;;;;;;12.43;7.10;;;;;;;7.40;60.94;100352.50;6121977;22;97445;-83
2023/04/07 09:23:50;;;;;;;13.13;7.28;;;;;;;7.41;60.94;100349.84;6122407;22;97560;-84
2023/04/07 09:26:21;;;;;;;14.88;7.88;;;;;;;7.29;60.60;100312.69;6121237;22;101506;-83
2023/04/07 09:28:58;;;;;;;18.77;8.30;;;;;;;7.39;60.78;100343.81;6145147;22;98272;-82
2023/04/07 09:31:47;;;;;;;11.23;7.33;;;;;;;7.43;60.78;100347.22;6144615;22;97006;-85
2023/04/07 09:34:35;;;;;;;9.88;7.20;;;;;;;7.51;60.60;100354.91;6147261;22;96815;-84
2023/04/07 09:37:09;;;;;;;15.25;7.38;;;;;;;7.41;60.68;100328.97;6174187;22;101092;-85
2023/04/07 09:39:50;;;;;;;13.60;7.27;;;;;;;7.63;60.39;100352.03;6127783;22;101362;-86
2023/04/07 09:42:17;;;;;;;9.55;6.95;;;;;;;7.60;59.75;100352.97;6095876;22;97301;-85
2023/04/07 09:44:43;;;;;;;12.00;7.45;;;;;;;7.65;59.76;100356.34;6123139;22;97159;-85
2023/04/07 09:47:15;;;;;;;14.52;7.18;;;;;;;7.40;60.09;100321.19;6147601;22;98474;-85
2023/04/07 09:49:52;;;;;;;17.27;8.00;;;;;;;7.50;60.03;100330.53;6149982;22;99542;-84
2023/04/07 09:52:22;;;;;;;12.68;6.90;;;;;;;7.52;60.15;100339.19;6148320;22;96707;-86
2023/04/07 09:54:50;;;;;;;14.15;7.25;;;;;;;7.45;60.30;100332.41;6150124;22;97196;-86
2023/04/07 09:57:17;;;;;;;12.32;7.07;;;;;;;7.25;60.02;100299.72;6149218;22;100674;-85
2023/04/07 09:59:43;;;;;;;13.98;7.75;;;;;;;7.38;59.86;100308.13;6119545;22;101071;-84
2023/04/07 10:02:11;;;;;;;10.57;7.43;;;;;;;7.52;60.20;100336.59;6137971;22;97553;-85
2023/04/07 10:04:39;;;;;;;10.23;7.30;;;;;;;7.42;60.19;100327.22;6093846;22;96845;-85
2023/04/07 10:07:05;;;;;;;12.10;7.30;;;;;;;7.74;60.28;100362.22;6089864;22;100664;-84
2023/04/07 10:09:34;;;;;;;7.95;5.78;;;;;;;7.67;60.43;100362.38;6118997;22;99306;-85
2023/04/07 10:11:59;;;;;;;10.82;6.85;;;;;;;7.67;60.01;100351.91;6091995;22;97075;-86
2023/04/07 10:14:28;;;;;;;14.57;6.65;;;;;;;7.42;60.38;100320.25;6094119;22;97080;-84
2023/04/07 10:16:54;;;;;;;11.98;6.75;;;;;;;7.72;60.11;100346.59;6117872;22;98186;-85
2023/04/07 10:19:20;;;;;;;9.30;6.47;;;;;;;7.64;60.16;100330.22;6118948;22;100271;-85
2023/04/07 10:21:47;;;;;;;11.25;6.80;;;;;;;7.76;60.30;100348.25;6119808;22;97434;-84
2023/04/07 10:24:18;;;;;;;11.18;7.57;;;;;;;7.65;60.39;100329.31;6094459;22;97039;-84
2023/04/07 10:26:46;;;;;;;15.88;7.13;;;;;;;7.54;60.41;100319.13;6119454;22;100823;-83
2023/04/07 10:29:14;;;;;;;10.27;6.88;;;;;;;7.71;60.36;100337.91;6094454;22;100993;-84
2023/04/07 10:31:40;;;;;;;15.02;7.03;;;;;;;7.74;60.67;100341.34;6093785;22;96720;-82
2023/04/07 10:34:06;;;;;;;9.30;6.90;;;;;;;7.61;60.23;100331.16;6118430;22;97457;-84
2023/04/07 10:36:33;;;;;;;9.45;6.55;;;;;;;7.70;60.49;100346.63;6093638;22;99611;-86
2023/04/07 10:39:08;;;;;;;11.07;7.00;;;;;;;7.67;60.47;100338.84;6093006;22;101321;-86
2023/04/07 10:41:38;;;;;;;13.73;7.53;;;;;;;7.71;60.75;100347.50;6119253;22;97207;-89
2023/04/07 10:44:09;;;;;;;11.13;7.60;;;;;;;7.71;60.67;100334.44;6118068;22;97095;-86
2023/04/07 10:47:01;;;;;;;8.23;6.70;;;;;;;7.62;60.86;100330.28;6141851;22;101174;-91
2023/04/07 10:49:29;;;;;;;11.70;8.15;;;;;;;7.70;61.29;100351.00;6084446;22;101512;-86
2023/04/07 10:52:22;;;;;;;10.57;7.85;;;;;;;7.76;61.63;100350.00;6093166;22;97141;-87
2023/04/07 10:54:47;;;;;;;11.27;7.88;;;;;;;7.67;61.45;100336.25;6102531;22;97219;-88
2023/04/07 10:57:14;;;;;;;11.45;7.63;;;;;;;7.70;61.94;100353.59;6089669;22;100482;-87
2023/04/07 10:59:45;;;;;;;11.52;8.60;;;;;;;7.67;62.07;100338.84;6119238;22;101437;-89
2023/04/07 11:02:11;;;;;;;9.98;8.43;;;;;;;7.78;62.09;100359.53;6151534;22;97547;-89
2023/04/07 11:04:37;;;;;;;9.07;6.63;;;;;;;7.77;62.11;100349.13;6177854;22;97197;-88
2023/04/07 11:07:03;;;;;;;8.73;6.82;;;;;;;7.48;62.82;100317.50;6151488;22;98089;-88
2023/04/07 11:09:28;;;;;;;10.25;7.80;;;;;;;7.74;62.56;100357.91;6152004;22;100161;-89
2023/04/07 11:11:54;;;;;;;10.68;6.93;;;;;;;7.69;62.57;100363.22;6126747;22;96666;-87
2023/04/07 11:14:30;;;;;;;9.43;7.35;;;;;;;7.72;62.53;100355.31;6125414;22;96792;-84
2023/04/07 11:16:56;;;;;;;10.23;6.78;;;;;;;7.59;62.73;100334.69;6121548;22;101392;-85
2023/04/07 11:19:22;;;;;;;9.93;6.85;;;;;;;7.81;62.78;100351.63;6149105;22;101194;-86
2023/04/07 11:21:48;;;;;;;9.60;7.13;;;;;;;7.57;62.68;100311.22;6149911;22;97166;-86
2023/04/07 11:24:34;;;;;;;14.88;7.68;;;;;;;7.78;62.36;100358.69;6175206;22;97539;-86
2023/04/07 11:27:00;;;;;;;11.27;7.95;;;;;;;7.72;62.67;100349.22;6150528;22;99925;-88